createdAt,value
2018-01-27T00:00:23.860Z,26.30
2018-01-27T00:01:23.925Z,25.50
2018-01-27T00:02:23.953Z,26.70
2018-01-27T00:03:24.745Z,30.80
2018-01-27T00:04:24.013Z,30.10
2018-01-27T00:05:24.725Z,26.80
2018-01-27T00:06:24.807Z,29.30
2018-01-27T00:07:23.778Z,24.30
2018-01-27T00:08:23.772Z,24.90
2018-01-27T00:09:23.768Z,25.60
2018-01-27T00:10:23.865Z,26.80
2018-01-27T00:11:23.769Z,36.60
2018-01-27T00:12:23.760Z,38.30
2018-01-27T00:13:23.753Z,36.80
2018-01-27T00:14:23.759Z,41.20
2018-01-27T00:15:23.785Z,39.60
2018-01-27T00:16:23.746Z,36.70
2018-01-27T00:17:23.742Z,29.60
2018-01-27T00:18:23.739Z,27.20
2018-01-27T00:19:23.745Z,26.50
2018-01-27T00:20:23.732Z,27.20
2018-01-27T00:21:23.737Z,29.30
2018-01-27T00:22:23.725Z,25.00
2018-01-27T00:23:23.743Z,24.60
2018-01-27T00:24:23.737Z,24.50
2018-01-27T00:25:23.716Z,24.60
2018-01-27T00:26:24.692Z,25.20
2018-01-27T00:27:23.709Z,27.50
2018-01-27T00:28:23.879Z,25.00
2018-01-27T00:29:23.720Z,26.30
2018-01-27T00:30:23.699Z,30.40
2018-01-27T00:31:23.698Z,32.60
2018-01-27T00:32:23.698Z,28.30
2018-01-27T00:33:23.703Z,29.40
2018-01-27T00:34:23.687Z,31.60
2018-01-27T00:35:23.703Z,28.80
2018-01-27T00:36:23.679Z,30.30
2018-01-27T00:37:23.674Z,30.30
2018-01-27T00:38:23.681Z,29.60
2018-01-27T00:39:23.678Z,28.90
2018-01-27T00:40:23.683Z,32.30
2018-01-27T00:41:23.665Z,28.50
2018-01-27T00:42:23.696Z,28.60
2018-01-27T00:43:23.704Z,28.90
2018-01-27T00:44:23.692Z,28.20
2018-01-27T00:45:23.731Z,29.40
2018-01-27T00:46:23.914Z,28.30
2018-01-27T00:47:23.650Z,28.60
2018-01-27T00:48:23.640Z,29.80
2018-01-27T00:49:23.639Z,30.50
2018-01-27T00:50:23.676Z,32.70
2018-01-27T00:51:24.771Z,29.80
2018-01-27T00:52:23.694Z,30.60
2018-01-27T00:53:23.622Z,29.40
2018-01-27T00:54:23.702Z,29.70
2018-01-27T00:55:24.237Z,29.50
2018-01-27T00:56:23.825Z,31.60
2018-01-27T00:57:24.240Z,29.40
2018-01-27T00:58:24.196Z,29.10
2018-01-27T00:59:24.749Z,30.80
2018-01-27T01:00:23.605Z,30.40
2018-01-27T01:01:23.607Z,29.90
2018-01-27T01:02:23.619Z,40.10
2018-01-27T01:03:24.194Z,55.40
2018-01-27T01:04:24.245Z,51.00
2018-01-27T01:05:23.612Z,39.60
2018-01-27T01:06:24.261Z,42.80
2018-01-27T01:07:23.596Z,33.80
2018-01-27T01:08:23.612Z,36.70
2018-01-27T01:09:24.228Z,49.70
2018-01-27T01:10:23.636Z,46.60
2018-01-27T01:11:24.250Z,45.40
2018-01-27T01:12:24.771Z,41.00
2018-01-27T01:13:24.258Z,39.50
2018-01-27T01:14:24.215Z,35.20
2018-01-27T01:15:24.250Z,33.50
2018-01-27T01:16:23.641Z,35.70
2018-01-27T01:17:24.391Z,35.00
2018-01-27T01:18:23.598Z,36.20
2018-01-27T01:19:24.227Z,40.80
2018-01-27T01:20:23.713Z,40.70
2018-01-27T01:21:24.203Z,38.10
2018-01-27T01:22:23.606Z,36.10
2018-01-27T01:23:24.221Z,30.60
2018-01-27T01:24:24.788Z,28.90
2018-01-27T01:25:24.741Z,29.40
2018-01-27T01:26:24.267Z,28.20
2018-01-27T01:27:23.714Z,31.70
2018-01-27T01:28:23.531Z,29.70
2018-01-27T01:29:23.489Z,30.90
2018-01-27T01:30:23.648Z,32.00
2018-01-27T01:31:23.590Z,36.60
2018-01-27T01:32:24.262Z,32.30
2018-01-27T01:33:23.522Z,31.90
2018-01-27T01:34:25.787Z,32.60
2018-01-27T01:35:23.479Z,32.30
2018-01-27T01:36:24.452Z,31.50
2018-01-27T01:37:23.595Z,31.40
2018-01-27T01:38:24.229Z,30.90
2018-01-27T01:39:23.596Z,31.80
2018-01-27T01:40:24.739Z,32.00
2018-01-27T01:41:23.595Z,31.90
2018-01-27T01:42:23.461Z,29.20
2018-01-27T01:43:23.478Z,29.80
2018-01-27T01:44:23.497Z,27.70
2018-01-27T01:45:23.459Z,29.30
2018-01-27T01:46:23.552Z,30.30
2018-01-27T01:47:23.514Z,30.10
2018-01-27T01:48:23.411Z,30.70
2018-01-27T01:49:23.403Z,32.60
2018-01-27T01:50:23.410Z,33.70
2018-01-27T01:51:23.405Z,33.90
2018-01-27T01:52:23.394Z,32.30
2018-01-27T01:53:23.387Z,31.40
2018-01-27T01:54:23.388Z,29.70
2018-01-27T01:55:24.764Z,33.70
2018-01-27T01:56:23.463Z,32.20
2018-01-27T01:57:23.373Z,29.50
2018-01-27T01:58:23.483Z,32.10
2018-01-27T01:59:23.381Z,30.60
2018-01-27T02:00:23.428Z,31.40
2018-01-27T02:01:23.440Z,35.10
2018-01-27T02:02:23.396Z,33.20
2018-01-27T02:03:24.279Z,30.20
2018-01-27T02:04:24.243Z,34.00
2018-01-27T02:05:23.537Z,30.00
2018-01-27T02:06:23.443Z,33.40
2018-01-27T02:07:23.401Z,32.10
2018-01-27T02:08:24.264Z,32.70
2018-01-27T02:09:24.272Z,34.00
2018-01-27T02:10:23.395Z,37.50
2018-01-27T02:11:23.335Z,42.90
2018-01-27T02:12:24.261Z,38.10
2018-01-27T02:13:23.407Z,45.30
2018-01-27T02:14:23.321Z,44.50
2018-01-27T02:15:23.308Z,48.60
2018-01-27T02:16:23.307Z,45.50
2018-01-27T02:17:23.300Z,46.60
2018-01-27T02:18:24.305Z,43.30
2018-01-27T02:19:24.352Z,37.90
2018-01-27T02:20:23.370Z,35.80
2018-01-27T02:21:24.215Z,36.70
2018-01-27T02:22:23.307Z,37.10
2018-01-27T02:23:23.284Z,34.40
2018-01-27T02:24:23.284Z,33.20
2018-01-27T02:25:23.284Z,34.70
2018-01-27T02:26:23.265Z,33.30
2018-01-27T02:27:23.304Z,34.40
2018-01-27T02:28:23.258Z,31.40
2018-01-27T02:29:23.718Z,31.00
2018-01-27T02:30:23.251Z,30.30
2018-01-27T02:31:24.259Z,27.60
2018-01-27T02:32:23.244Z,28.20
2018-01-27T02:33:23.240Z,29.00
2018-01-27T02:34:23.234Z,30.40
2018-01-27T02:35:23.251Z,30.90
2018-01-27T02:36:23.243Z,36.40
2018-01-27T02:37:23.262Z,32.80
2018-01-27T02:38:24.280Z,33.80
2018-01-27T02:39:24.270Z,33.00
2018-01-27T02:40:23.323Z,33.50
2018-01-27T02:41:24.225Z,32.10
2018-01-27T02:42:23.255Z,32.20
2018-01-27T02:43:24.273Z,31.60
2018-01-27T02:44:24.254Z,33.90
2018-01-27T02:45:24.266Z,35.10
2018-01-27T02:46:24.239Z,34.80
2018-01-27T02:47:23.786Z,32.70
2018-01-27T02:48:23.712Z,33.60
2018-01-27T02:49:25.723Z,32.40
2018-01-27T02:50:23.282Z,33.30
2018-01-27T02:51:24.275Z,32.80
2018-01-27T02:52:24.283Z,34.40
2018-01-27T02:53:23.278Z,33.20
2018-01-27T02:54:23.730Z,34.90
2018-01-27T02:55:23.256Z,36.80
2018-01-27T02:56:24.272Z,127.60
2018-01-27T02:57:23.204Z,59.40
2018-01-27T02:58:23.148Z,35.80
2018-01-27T02:59:23.286Z,35.30
2018-01-27T03:00:23.715Z,34.80
2018-01-27T03:01:23.726Z,35.30
2018-01-27T03:02:23.802Z,35.80
2018-01-27T03:03:24.223Z,37.10
2018-01-27T03:04:23.149Z,35.50
2018-01-27T03:05:23.309Z,34.50
2018-01-27T03:06:23.125Z,36.40
2018-01-27T03:07:23.104Z,36.70
2018-01-27T03:08:23.723Z,36.20
2018-01-27T03:09:23.175Z,35.40
2018-01-27T03:10:23.102Z,36.80
2018-01-27T03:11:23.131Z,39.50
2018-01-27T03:12:23.257Z,38.10
2018-01-27T03:13:23.242Z,38.40
2018-01-27T03:14:23.064Z,37.30
2018-01-27T03:15:23.720Z,38.40
2018-01-27T03:16:23.132Z,36.00
2018-01-27T03:17:23.719Z,35.70
2018-01-27T03:18:23.741Z,36.00
2018-01-27T03:19:23.855Z,36.90
2018-01-27T03:20:23.065Z,35.30
2018-01-27T03:21:24.212Z,35.30
2018-01-27T03:22:23.176Z,37.00
2018-01-27T03:23:23.137Z,39.10
2018-01-27T03:24:24.271Z,36.40
2018-01-27T03:25:24.243Z,36.30
2018-01-27T03:26:23.162Z,37.20
2018-01-27T03:27:23.082Z,37.90
2018-01-27T03:28:23.788Z,40.00
2018-01-27T03:29:23.075Z,36.40
2018-01-27T03:30:24.291Z,37.00
2018-01-27T03:31:23.782Z,37.50
2018-01-27T03:32:23.120Z,35.80
2018-01-27T03:33:23.779Z,34.30
2018-01-27T03:34:22.994Z,35.50
2018-01-27T03:35:23.801Z,35.80
2018-01-27T03:36:23.731Z,34.40
2018-01-27T03:37:23.797Z,35.70
2018-01-27T03:38:23.891Z,34.50
2018-01-27T03:39:23.812Z,34.00
2018-01-27T03:40:23.846Z,34.00
2018-01-27T03:41:23.226Z,33.80
2018-01-27T03:42:23.790Z,33.60
2018-01-27T03:43:23.833Z,34.80
2018-01-27T03:44:23.021Z,35.60
2018-01-27T03:45:23.794Z,35.50
2018-01-27T03:46:23.112Z,34.40
2018-01-27T03:47:22.988Z,34.60
2018-01-27T03:48:23.003Z,34.50
2018-01-27T03:49:23.772Z,33.70
2018-01-27T03:50:22.960Z,32.50
2018-01-27T03:51:23.771Z,32.70
2018-01-27T03:52:22.964Z,33.90
2018-01-27T03:53:22.980Z,32.40
2018-01-27T03:54:22.964Z,32.70
2018-01-27T03:55:22.928Z,32.00
2018-01-27T03:56:23.002Z,31.40
2018-01-27T03:57:23.821Z,31.90
2018-01-27T03:58:23.790Z,31.30
2018-01-27T03:59:23.734Z,31.40
2018-01-27T04:00:23.782Z,31.30
2018-01-27T04:01:23.719Z,31.10
2018-01-27T04:02:22.907Z,29.50
2018-01-27T04:03:22.867Z,30.90
2018-01-27T04:04:22.913Z,30.60
2018-01-27T04:05:22.873Z,30.10
2018-01-27T04:06:23.761Z,29.30
2018-01-27T04:07:23.768Z,30.30
2018-01-27T04:08:22.876Z,31.00
2018-01-27T04:09:22.964Z,32.70
2018-01-27T04:10:22.898Z,30.60
2018-01-27T04:11:23.792Z,35.60
2018-01-27T04:12:23.015Z,32.00
2018-01-27T04:13:22.832Z,31.60
2018-01-27T04:14:22.827Z,30.20
2018-01-27T04:15:22.830Z,31.00
2018-01-27T04:16:22.939Z,31.00
2018-01-27T04:17:23.829Z,30.20
2018-01-27T04:18:37.799Z,30.10
2018-01-27T04:19:23.764Z,30.20
2018-01-27T04:20:23.763Z,30.90
2018-01-27T04:21:23.781Z,29.80
2018-01-27T04:22:22.861Z,31.50
2018-01-27T04:23:22.809Z,30.70
2018-01-27T04:24:22.834Z,31.10
2018-01-27T04:25:22.890Z,30.60
2018-01-27T04:26:23.779Z,31.00
2018-01-27T04:27:22.821Z,30.30
2018-01-27T04:28:23.725Z,31.00
2018-01-27T04:29:23.790Z,31.30
2018-01-27T04:30:22.845Z,32.00
2018-01-27T04:31:22.960Z,39.30
2018-01-27T04:32:24.250Z,31.60
2018-01-27T04:33:22.761Z,32.70
2018-01-27T04:34:22.774Z,33.40
2018-01-27T04:35:22.752Z,32.90
2018-01-27T04:36:23.776Z,32.70
2018-01-27T04:37:24.276Z,32.50
2018-01-27T04:38:23.730Z,32.50
2018-01-27T04:39:23.774Z,34.30
2018-01-27T04:40:22.807Z,34.30
2018-01-27T04:41:22.785Z,35.00
2018-01-27T04:42:23.752Z,34.00
2018-01-27T04:43:23.771Z,35.90
2018-01-27T04:44:22.777Z,35.60
2018-01-27T04:45:23.844Z,37.90
2018-01-27T04:46:23.827Z,34.90
2018-01-27T04:47:22.961Z,35.00
2018-01-27T04:48:23.825Z,34.80
2018-01-27T04:49:22.908Z,35.70
2018-01-27T04:50:24.310Z,34.40
2018-01-27T04:51:23.815Z,35.60
2018-01-27T04:52:23.788Z,35.50
2018-01-27T04:53:24.422Z,36.10
2018-01-27T04:54:23.810Z,34.30
2018-01-27T04:55:23.826Z,34.60
2018-01-27T04:56:23.848Z,37.40
2018-01-27T04:57:24.782Z,34.80
2018-01-27T04:58:22.849Z,36.30
2018-01-27T04:59:23.336Z,35.60
2018-01-27T05:00:23.767Z,35.40
2018-01-27T05:01:24.301Z,35.60
2018-01-27T05:02:22.664Z,36.50
2018-01-27T05:03:22.793Z,37.20
2018-01-27T05:04:22.796Z,35.00
2018-01-27T05:05:22.746Z,35.80
2018-01-27T05:06:23.782Z,35.50
2018-01-27T05:07:26.326Z,35.20
2018-01-27T05:08:24.324Z,33.60
2018-01-27T05:09:22.762Z,36.10
2018-01-27T05:10:22.692Z,35.30
2018-01-27T05:11:22.746Z,34.10
2018-01-27T05:12:23.239Z,35.60
2018-01-27T05:13:23.296Z,34.50
2018-01-27T05:14:23.271Z,33.80
2018-01-27T05:15:22.672Z,34.40
2018-01-27T05:16:24.308Z,35.70
2018-01-27T05:17:22.725Z,34.90
2018-01-27T05:18:23.258Z,33.00
2018-01-27T05:19:22.749Z,33.90
2018-01-27T05:20:23.340Z,34.10
2018-01-27T05:21:23.232Z,34.60
2018-01-27T05:22:22.672Z,34.10
2018-01-27T05:23:24.297Z,34.10
2018-01-27T05:24:23.316Z,35.00
2018-01-27T05:25:23.252Z,34.30
2018-01-27T05:26:22.711Z,36.40
2018-01-27T05:27:23.249Z,33.90
2018-01-27T05:28:23.785Z,35.70
2018-01-27T05:29:23.254Z,33.70
2018-01-27T05:30:22.647Z,34.90
2018-01-27T05:31:23.237Z,34.00
2018-01-27T05:32:23.263Z,32.50
2018-01-27T05:33:22.624Z,33.10
2018-01-27T05:34:23.272Z,33.20
2018-01-27T05:35:22.669Z,33.30
2018-01-27T05:36:22.690Z,32.70
2018-01-27T05:37:23.296Z,36.60
2018-01-27T05:38:23.307Z,33.80
2018-01-27T05:39:22.550Z,35.00
2018-01-27T05:40:23.250Z,34.30
2018-01-27T05:41:22.570Z,34.00
2018-01-27T05:42:22.570Z,33.40
2018-01-27T05:43:24.792Z,33.70
2018-01-27T05:44:22.567Z,35.70
2018-01-27T05:45:22.650Z,35.10
2018-01-27T05:46:22.540Z,35.00
2018-01-27T05:47:23.733Z,34.40
2018-01-27T05:48:23.281Z,33.50
2018-01-27T05:49:23.260Z,35.70
2018-01-27T05:50:23.235Z,34.40
2018-01-27T05:51:23.247Z,34.60
2018-01-27T05:52:23.253Z,34.50
2018-01-27T05:53:22.574Z,35.90
2018-01-27T05:54:22.536Z,35.60
2018-01-27T05:55:23.284Z,37.20
2018-01-27T05:56:23.258Z,34.90
2018-01-27T05:57:22.517Z,36.50
2018-01-27T05:58:22.543Z,35.80
2018-01-27T05:59:22.449Z,35.80
2018-01-27T06:00:22.523Z,38.00
2018-01-27T06:01:23.308Z,36.70
2018-01-27T06:02:22.542Z,35.70
2018-01-27T06:03:22.482Z,36.80
2018-01-27T06:04:22.479Z,34.90
2018-01-27T06:05:22.455Z,34.40
2018-01-27T06:06:23.277Z,35.30
2018-01-27T06:07:23.329Z,34.70
2018-01-27T06:08:23.301Z,36.00
2018-01-27T06:09:22.597Z,36.30
2018-01-27T06:10:22.450Z,35.30
2018-01-27T06:11:22.467Z,36.70
2018-01-27T06:12:22.485Z,35.50
2018-01-27T06:13:22.545Z,35.70
2018-01-27T06:14:22.585Z,36.00
2018-01-27T06:15:22.543Z,36.50
2018-01-27T06:16:22.446Z,37.50
2018-01-27T06:17:22.502Z,36.60
2018-01-27T06:18:23.238Z,36.80
2018-01-27T06:19:23.344Z,38.00
2018-01-27T06:20:23.768Z,36.50
2018-01-27T06:21:22.432Z,36.20
2018-01-27T06:22:23.294Z,34.30
2018-01-27T06:23:23.290Z,38.30
2018-01-27T06:24:22.480Z,37.30
2018-01-27T06:25:23.271Z,36.90
2018-01-27T06:26:23.338Z,37.00
2018-01-27T06:27:22.358Z,36.90
2018-01-27T06:28:22.351Z,36.40
2018-01-27T06:29:22.340Z,37.30
2018-01-27T06:30:22.338Z,38.70
2018-01-27T06:31:22.332Z,37.70
2018-01-27T06:32:22.329Z,38.20
2018-01-27T06:33:22.325Z,40.50
2018-01-27T06:34:22.322Z,37.70
2018-01-27T06:35:22.318Z,37.90
2018-01-27T06:36:22.315Z,39.80
2018-01-27T06:37:22.310Z,37.90
2018-01-27T06:38:22.435Z,37.10
2018-01-27T06:39:22.306Z,38.20
2018-01-27T06:40:22.308Z,38.10
2018-01-27T06:41:22.297Z,38.30
2018-01-27T06:42:22.297Z,40.30
2018-01-27T06:43:22.290Z,40.60
2018-01-27T06:44:22.309Z,40.70
2018-01-27T06:45:22.288Z,38.80
2018-01-27T06:46:22.293Z,39.80
2018-01-27T06:47:22.288Z,39.80
2018-01-27T06:48:22.273Z,42.20
2018-01-27T06:49:22.268Z,40.40
2018-01-27T06:50:22.265Z,41.90
2018-01-27T06:51:22.262Z,41.80
2018-01-27T06:52:22.259Z,41.90
2018-01-27T06:53:22.259Z,41.40
2018-01-27T06:54:22.253Z,40.80
2018-01-27T06:55:22.758Z,41.90
2018-01-27T06:56:22.244Z,40.70
2018-01-27T06:57:22.243Z,40.60
2018-01-27T06:58:22.237Z,40.80
2018-01-27T06:59:22.234Z,41.40
2018-01-27T07:00:22.235Z,41.10
2018-01-27T07:01:22.229Z,40.80
2018-01-27T07:02:22.223Z,40.30
2018-01-27T07:03:22.220Z,40.50
2018-01-27T07:04:22.217Z,39.60
2018-01-27T07:05:22.214Z,42.00
2018-01-27T07:06:22.211Z,41.50
2018-01-27T07:07:22.211Z,40.10
2018-01-27T07:08:22.208Z,41.10
2018-01-27T07:09:22.199Z,41.90
2018-01-27T07:10:22.195Z,42.10
2018-01-27T07:11:22.192Z,43.40
2018-01-27T07:12:22.193Z,43.00
2018-01-27T07:13:22.199Z,42.20
2018-01-27T07:14:22.183Z,41.20
2018-01-27T07:15:22.178Z,41.60
2018-01-27T07:16:22.175Z,42.70
2018-01-27T07:17:22.171Z,42.40
2018-01-27T07:18:22.245Z,40.20
2018-01-27T07:19:22.165Z,39.60
2018-01-27T07:20:22.161Z,40.90
2018-01-27T07:21:22.289Z,39.40
2018-01-27T07:22:22.360Z,41.50
2018-01-27T07:23:22.153Z,44.20
2018-01-27T07:24:22.155Z,42.30
2018-01-27T07:25:22.229Z,40.30
2018-01-27T07:26:22.147Z,41.20
2018-01-27T07:27:22.140Z,41.40
2018-01-27T07:28:22.130Z,40.70
2018-01-27T07:29:22.134Z,40.90
2018-01-27T07:30:22.325Z,43.00
2018-01-27T07:31:22.128Z,39.70
2018-01-27T07:32:22.122Z,40.90
2018-01-27T07:33:22.116Z,40.50
2018-01-27T07:34:22.108Z,39.90
2018-01-27T07:35:22.111Z,39.10
2018-01-27T07:36:22.103Z,40.10
2018-01-27T07:37:22.147Z,37.50
2018-01-27T07:38:22.142Z,40.10
2018-01-27T07:39:22.118Z,40.30
2018-01-27T07:40:22.092Z,39.60
2018-01-27T07:41:22.118Z,38.40
2018-01-27T07:42:22.100Z,38.10
2018-01-27T07:43:22.077Z,38.30
2018-01-27T07:44:22.078Z,40.10
2018-01-27T07:45:22.069Z,38.00
2018-01-27T07:46:22.065Z,39.30
2018-01-27T07:47:22.060Z,39.50
2018-01-27T07:48:22.057Z,40.20
2018-01-27T07:49:22.058Z,39.60
2018-01-27T07:50:22.049Z,38.70
2018-01-27T07:51:22.047Z,39.80
2018-01-27T07:52:22.042Z,38.20
2018-01-27T07:53:22.042Z,38.20
2018-01-27T07:54:22.034Z,38.90
2018-01-27T07:55:22.042Z,38.70
2018-01-27T07:56:22.054Z,38.70
2018-01-27T07:57:22.022Z,40.70
2018-01-27T07:58:22.020Z,38.10
2018-01-27T07:59:22.016Z,37.00
2018-01-27T08:00:22.013Z,36.80
2018-01-27T08:01:22.008Z,37.10
2018-01-27T08:02:22.003Z,37.60
2018-01-27T08:03:22.008Z,36.80
2018-01-27T08:04:21.998Z,37.20
2018-01-27T08:05:21.994Z,36.30
2018-01-27T08:06:21.990Z,37.50
2018-01-27T08:07:21.989Z,38.40
2018-01-27T08:08:21.989Z,36.90
2018-01-27T08:09:21.979Z,36.60
2018-01-27T08:10:21.973Z,37.60
2018-01-27T08:11:21.970Z,35.70
2018-01-27T08:12:21.967Z,36.50
2018-01-27T08:13:21.961Z,36.80
2018-01-27T08:14:21.958Z,34.90
2018-01-27T08:15:21.954Z,36.90
2018-01-27T08:16:21.950Z,36.50
2018-01-27T08:17:21.950Z,37.30
2018-01-27T08:18:21.944Z,36.30
2018-01-27T08:19:21.938Z,35.90
2018-01-27T08:20:21.935Z,37.40
2018-01-27T08:21:21.933Z,36.80
2018-01-27T08:22:21.927Z,36.70
2018-01-27T08:23:21.924Z,38.00
2018-01-27T08:24:21.921Z,35.20
2018-01-27T08:25:21.920Z,36.60
2018-01-27T08:26:21.912Z,37.00
2018-01-27T08:27:21.982Z,37.40
2018-01-27T08:28:21.906Z,36.30
2018-01-27T08:29:21.901Z,37.60
2018-01-27T08:30:22.239Z,36.40
2018-01-27T08:31:21.906Z,35.90
2018-01-27T08:32:22.558Z,37.80
2018-01-27T08:33:21.883Z,37.20
2018-01-27T08:34:21.880Z,37.60
2018-01-27T08:35:21.883Z,37.50
2018-01-27T08:36:21.873Z,37.30
2018-01-27T08:37:21.870Z,37.90
2018-01-27T08:38:21.865Z,36.70
2018-01-27T08:39:21.869Z,36.70
2018-01-27T08:40:21.858Z,37.00
2018-01-27T08:41:21.860Z,36.10
2018-01-27T08:42:21.850Z,35.90
2018-01-27T08:43:21.846Z,37.40
2018-01-27T08:44:21.845Z,36.30
2018-01-27T08:45:21.852Z,36.10
2018-01-27T08:46:21.893Z,36.20
2018-01-27T08:47:21.832Z,37.30
2018-01-27T08:48:21.829Z,35.70
2018-01-27T08:49:21.825Z,35.10
2018-01-27T08:50:21.822Z,35.80
2018-01-27T08:51:21.819Z,36.20
2018-01-27T08:52:21.814Z,36.80
2018-01-27T08:53:21.809Z,36.70
2018-01-27T08:54:21.819Z,35.10
2018-01-27T08:55:21.803Z,36.90
2018-01-27T08:56:21.802Z,35.70
2018-01-27T08:57:21.797Z,37.70
2018-01-27T08:58:22.466Z,38.10
2018-01-27T08:59:21.788Z,36.60
2018-01-27T09:00:21.809Z,36.90
2018-01-27T09:01:21.785Z,37.10
2018-01-27T09:02:21.784Z,37.90
2018-01-27T09:03:21.775Z,37.80
2018-01-27T09:04:21.774Z,40.20
2018-01-27T09:05:21.782Z,37.30
2018-01-27T09:06:21.769Z,36.30
2018-01-27T09:07:21.762Z,37.20
2018-01-27T09:08:21.757Z,37.80
2018-01-27T09:09:21.753Z,38.40
2018-01-27T09:10:21.749Z,35.50
2018-01-27T09:11:21.747Z,35.50
2018-01-27T09:12:21.768Z,35.00
2018-01-27T09:13:21.743Z,36.10
2018-01-27T09:14:21.745Z,35.90
2018-01-27T09:15:21.734Z,37.40
2018-01-27T09:16:21.730Z,35.20
2018-01-27T09:17:21.727Z,36.40
2018-01-27T09:18:21.738Z,35.50
2018-01-27T09:19:21.729Z,37.10
2018-01-27T09:20:21.720Z,36.50
2018-01-27T09:21:21.712Z,35.30
2018-01-27T09:22:21.710Z,35.90
2018-01-27T09:23:21.722Z,34.20
2018-01-27T09:24:21.755Z,34.90
2018-01-27T09:25:21.704Z,34.40
2018-01-27T09:26:21.718Z,35.80
2018-01-27T09:27:21.699Z,34.70
2018-01-27T09:28:21.689Z,36.40
2018-01-27T09:29:21.782Z,36.00
2018-01-27T09:30:21.684Z,33.60
2018-01-27T09:31:22.393Z,35.30
2018-01-27T09:32:22.367Z,35.60
2018-01-27T09:33:21.804Z,35.20
2018-01-27T09:34:21.692Z,34.20
2018-01-27T09:35:21.792Z,35.40
2018-01-27T09:36:22.311Z,36.80
2018-01-27T09:37:21.875Z,36.20
2018-01-27T09:38:21.799Z,35.10
2018-01-27T09:39:22.827Z,35.00
2018-01-27T09:40:21.732Z,34.60
2018-01-27T09:41:21.782Z,34.80
2018-01-27T09:42:21.866Z,35.20
2018-01-27T09:43:21.813Z,34.00
2018-01-27T09:44:21.771Z,35.80
2018-01-27T09:45:21.788Z,34.40
2018-01-27T09:46:21.663Z,35.00
2018-01-27T09:47:21.739Z,34.00
2018-01-27T09:48:21.739Z,35.70
2018-01-27T09:49:21.683Z,35.50
2018-01-27T09:50:21.651Z,33.80
2018-01-27T09:51:21.633Z,35.90
2018-01-27T09:52:21.633Z,35.90
2018-01-27T09:53:21.764Z,32.70
2018-01-27T09:54:21.610Z,34.10
2018-01-27T09:55:21.622Z,34.70
2018-01-27T09:56:22.271Z,34.20
2018-01-27T09:57:21.595Z,32.80
2018-01-27T09:58:21.620Z,34.60
2018-01-27T09:59:21.671Z,34.80
2018-01-27T10:00:21.654Z,34.60
2018-01-27T10:01:21.645Z,33.00
2018-01-27T10:02:21.647Z,33.80
2018-01-27T10:03:21.611Z,33.90
2018-01-27T10:04:21.597Z,34.20
2018-01-27T10:05:21.626Z,34.30
2018-01-27T10:06:21.614Z,34.10
2018-01-27T10:07:21.594Z,35.70
2018-01-27T10:08:21.570Z,33.20
2018-01-27T10:09:21.591Z,34.10
2018-01-27T10:10:21.650Z,34.70
2018-01-27T10:11:21.581Z,32.90
2018-01-27T10:12:21.564Z,31.70
2018-01-27T10:13:21.549Z,33.30
2018-01-27T10:14:21.544Z,32.20
2018-01-27T10:15:21.552Z,31.30
2018-01-27T10:16:21.544Z,31.40
2018-01-27T10:17:21.550Z,32.10
2018-01-27T10:18:21.545Z,32.30
2018-01-27T10:19:21.529Z,31.60
2018-01-27T10:20:21.538Z,31.10
2018-01-27T10:21:21.538Z,31.70
2018-01-27T10:22:21.523Z,33.10
2018-01-27T10:23:21.536Z,31.80
2018-01-27T10:24:21.515Z,31.70
2018-01-27T10:25:21.513Z,31.40
2018-01-27T10:26:21.512Z,30.90
2018-01-27T10:27:21.533Z,31.40
2018-01-27T10:28:21.514Z,31.30
2018-01-27T10:29:21.518Z,31.40
2018-01-27T10:30:21.606Z,30.40
2018-01-27T10:31:21.497Z,31.00
2018-01-27T10:32:21.494Z,32.50
2018-01-27T10:33:21.493Z,30.30
2018-01-27T10:34:21.500Z,31.80
2018-01-27T10:35:21.487Z,32.10
2018-01-27T10:36:21.486Z,32.40
2018-01-27T10:37:21.484Z,32.80
2018-01-27T10:38:21.479Z,33.10
2018-01-27T10:39:21.476Z,31.80
2018-01-27T10:40:21.479Z,33.10
2018-01-27T10:41:21.472Z,32.70
2018-01-27T10:42:21.470Z,32.80
2018-01-27T10:43:21.474Z,32.30
2018-01-27T10:44:21.464Z,32.40
2018-01-27T10:45:21.462Z,32.90
2018-01-27T10:46:21.459Z,32.90
2018-01-27T10:47:21.459Z,34.50
2018-01-27T10:48:21.456Z,33.70
2018-01-27T10:49:21.545Z,35.10
2018-01-27T10:50:21.566Z,34.90
2018-01-27T10:51:21.453Z,34.80
2018-01-27T10:52:21.617Z,34.70
2018-01-27T10:53:21.442Z,34.50
2018-01-27T10:54:21.653Z,35.10
2018-01-27T10:55:22.355Z,35.10
2018-01-27T10:56:21.627Z,33.30
2018-01-27T10:57:21.441Z,34.10
2018-01-27T10:58:21.486Z,33.60
2018-01-27T10:59:21.431Z,35.20
2018-01-27T11:00:21.427Z,34.90
2018-01-27T11:01:21.997Z,35.50
2018-01-27T11:02:21.444Z,32.90
2018-01-27T11:03:21.627Z,34.60
2018-01-27T11:04:21.425Z,33.40
2018-01-27T11:05:21.417Z,34.50
2018-01-27T11:06:21.414Z,34.90
2018-01-27T11:07:21.418Z,35.00
2018-01-27T11:08:21.419Z,35.10
2018-01-27T11:09:21.409Z,33.40
2018-01-27T11:10:21.440Z,35.20
2018-01-27T11:11:21.410Z,35.50
2018-01-27T11:12:21.444Z,34.30
2018-01-27T11:13:21.398Z,33.60
2018-01-27T11:14:21.407Z,32.80
2018-01-27T11:15:21.394Z,31.90
2018-01-27T11:16:21.391Z,30.70
2018-01-27T11:17:21.444Z,32.40
2018-01-27T11:18:21.388Z,33.00
2018-01-27T11:19:21.395Z,33.80
2018-01-27T11:20:21.383Z,33.10
2018-01-27T11:21:21.384Z,33.20
2018-01-27T11:22:21.381Z,33.10
2018-01-27T11:23:21.375Z,35.00
2018-01-27T11:24:21.375Z,32.10
2018-01-27T11:25:21.372Z,32.30
2018-01-27T11:26:21.373Z,35.50
2018-01-27T11:27:21.405Z,35.10
2018-01-27T11:28:21.363Z,32.80
2018-01-27T11:29:21.365Z,34.20
2018-01-27T11:30:21.367Z,33.30
2018-01-27T11:31:21.362Z,34.10
2018-01-27T11:32:21.363Z,33.20
2018-01-27T11:33:21.359Z,32.60
2018-01-27T11:34:21.347Z,32.70
2018-01-27T11:35:21.354Z,35.60
2018-01-27T11:36:21.344Z,41.80
2018-01-27T11:37:21.350Z,33.70
2018-01-27T11:38:21.338Z,32.30
2018-01-27T11:39:21.341Z,33.10
2018-01-27T11:40:21.354Z,32.60
2018-01-27T11:41:21.331Z,34.20
2018-01-27T11:42:21.326Z,32.50
2018-01-27T11:43:21.327Z,31.70
2018-01-27T11:44:21.326Z,31.70
2018-01-27T11:45:21.320Z,32.90
2018-01-27T11:46:21.362Z,33.70
2018-01-27T11:47:21.331Z,33.70
2018-01-27T11:48:21.317Z,34.70
2018-01-27T11:49:21.311Z,36.20
2018-01-27T11:50:21.309Z,34.30
2018-01-27T11:51:21.308Z,35.50
2018-01-27T11:52:21.306Z,36.00
2018-01-27T11:53:21.532Z,35.20
2018-01-27T11:54:21.303Z,34.50
2018-01-27T11:55:21.301Z,35.10
2018-01-27T11:56:21.298Z,35.30
2018-01-27T11:57:21.293Z,33.80
2018-01-27T11:58:21.291Z,33.10
2018-01-27T11:59:21.297Z,34.00
2018-01-27T12:00:21.290Z,34.80
2018-01-27T12:01:21.295Z,32.60
2018-01-27T12:02:21.283Z,34.60
2018-01-27T12:03:21.286Z,34.00
2018-01-27T12:04:21.281Z,35.90
2018-01-27T12:05:21.276Z,35.30
2018-01-27T12:06:21.275Z,32.20
2018-01-27T12:07:21.274Z,36.00
2018-01-27T12:08:21.470Z,34.70
2018-01-27T12:09:21.313Z,30.90
2018-01-27T12:10:21.269Z,30.00
2018-01-27T12:11:21.276Z,29.40
2018-01-27T12:12:21.269Z,27.10
2018-01-27T12:13:21.262Z,26.10
2018-01-27T12:14:21.264Z,25.90
2018-01-27T12:15:21.299Z,27.00
2018-01-27T12:16:21.328Z,27.20
2018-01-27T12:17:22.426Z,28.30
2018-01-27T12:18:22.356Z,31.50
2018-01-27T12:19:22.406Z,28.30
2018-01-27T12:20:21.259Z,29.40
2018-01-27T12:21:21.280Z,31.10
2018-01-27T12:22:21.290Z,30.90
2018-01-27T12:23:21.846Z,29.30
2018-01-27T12:24:21.241Z,27.40
2018-01-27T12:25:21.240Z,24.90
2018-01-27T12:26:21.267Z,26.30
2018-01-27T12:27:21.238Z,26.30
2018-01-27T12:28:21.237Z,26.60
2018-01-27T12:29:21.259Z,24.90
2018-01-27T12:30:21.228Z,26.20
2018-01-27T12:31:21.249Z,26.00
2018-01-27T12:32:21.228Z,34.00
2018-01-27T12:33:21.318Z,35.10
2018-01-27T12:34:21.221Z,25.90
2018-01-27T12:35:21.221Z,25.50
2018-01-27T12:36:21.219Z,27.90
2018-01-27T12:37:21.227Z,27.90
2018-01-27T12:38:21.221Z,27.90
2018-01-27T12:39:21.229Z,28.50
2018-01-27T12:40:21.235Z,27.30
2018-01-27T12:41:21.211Z,25.60
2018-01-27T12:42:21.205Z,30.00
2018-01-27T12:43:21.256Z,24.30
2018-01-27T12:44:21.207Z,26.50
2018-01-27T12:45:21.200Z,28.00
2018-01-27T12:46:21.198Z,25.00
2018-01-27T12:47:21.200Z,24.40
2018-01-27T12:48:21.195Z,24.80
2018-01-27T12:49:21.193Z,25.40
2018-01-27T12:50:21.244Z,24.10
2018-01-27T12:51:21.188Z,23.30
2018-01-27T12:52:21.187Z,24.00